sensor_id;sensor_type;location;lat;lon;timestamp;P1;durP1;ratioP1;P2;durP2;ratioP2
24216;SDS011;12356;49.386;8.688;2022-11-14T00:02:18;30.77;;;17.55;;
24216;SDS011;12356;49.386;8.688;2022-11-14T00:04:50;28.92;;;16.77;;
24216;SDS011;12356;49.386;8.688;2022-11-14T00:07:20;29.17;;;17.50;;
24216;SDS011;12356;49.386;8.688;2022-11-14T00:09:51;28.77;;;16.65;;
24216;SDS011;12356;49.386;8.688;2022-11-14T00:12:22;27.75;;;16.13;;
24216;SDS011;12356;49.386;8.688;2022-11-14T00:14:52;28.17;;;16.25;;
24216;SDS011;12356;49.386;8.688;2022-11-14T00:17:24;29.20;;;16.97;;
24216;SDS011;12356;49.386;8.688;2022-11-14T00:19:55;29.67;;;16.48;;
24216;SDS011;12356;49.386;8.688;2022-11-14T00:22:26;28.48;;;16.13;;
24216;SDS011;12356;49.386;8.688;2022-11-14T00:24:56;29.35;;;16.73;;
24216;SDS011;12356;49.386;8.688;2022-11-14T00:27:27;27.77;;;16.73;;
24216;SDS011;12356;49.386;8.688;2022-11-14T00:29:57;29.67;;;17.38;;
24216;SDS011;12356;49.386;8.688;2022-11-14T00:32:29;28.50;;;17.05;;
24216;SDS011;12356;49.386;8.688;2022-11-14T00:35:00;31.58;;;17.33;;
24216;SDS011;12356;49.386;8.688;2022-11-14T00:37:30;29.05;;;17.10;;
24216;SDS011;12356;49.386;8.688;2022-11-14T00:40:01;28.73;;;17.08;;
24216;SDS011;12356;49.386;8.688;2022-11-14T00:42:32;27.88;;;17.45;;
24216;SDS011;12356;49.386;8.688;2022-11-14T00:45:03;31.85;;;16.90;;
24216;SDS011;12356;49.386;8.688;2022-11-14T00:47:35;29.92;;;16.75;;
24216;SDS011;12356;49.386;8.688;2022-11-14T00:50:06;32.28;;;18.33;;
24216;SDS011;12356;49.386;8.688;2022-11-14T00:52:36;31.48;;;17.92;;
24216;SDS011;12356;49.386;8.688;2022-11-14T00:55:07;34.25;;;18.38;;
24216;SDS011;12356;49.386;8.688;2022-11-14T00:57:39;31.70;;;18.63;;
24216;SDS011;12356;49.386;8.688;2022-11-14T01:00:10;30.83;;;18.45;;
24216;SDS011;12356;49.386;8.688;2022-11-14T01:02:43;33.25;;;18.45;;
24216;SDS011;12356;49.386;8.688;2022-11-14T01:08:37;34.65;;;19.33;;
24216;SDS011;12356;49.386;8.688;2022-11-14T01:11:14;34.92;;;18.35;;
24216;SDS011;12356;49.386;8.688;2022-11-14T01:13:46;34.13;;;18.92;;
24216;SDS011;12356;49.386;8.688;2022-11-14T01:16:17;34.70;;;19.30;;
24216;SDS011;12356;49.386;8.688;2022-11-14T01:18:50;36.60;;;18.30;;
24216;SDS011;12356;49.386;8.688;2022-11-14T01:21:20;32.63;;;18.40;;
24216;SDS011;12356;49.386;8.688;2022-11-14T01:23:51;30.90;;;17.23;;
24216;SDS011;12356;49.386;8.688;2022-11-14T01:26:22;31.60;;;18.27;;
24216;SDS011;12356;49.386;8.688;2022-11-14T01:28:53;31.52;;;17.77;;
24216;SDS011;12356;49.386;8.688;2022-11-14T01:31:23;32.30;;;17.85;;
24216;SDS011;12356;49.386;8.688;2022-11-14T01:33:55;30.80;;;17.98;;
24216;SDS011;12356;49.386;8.688;2022-11-14T01:36:25;28.63;;;17.38;;
24216;SDS011;12356;49.386;8.688;2022-11-14T01:38:56;30.55;;;18.35;;
24216;SDS011;12356;49.386;8.688;2022-11-14T01:41:27;30.25;;;17.70;;
24216;SDS011;12356;49.386;8.688;2022-11-14T01:43:57;29.63;;;18.02;;
24216;SDS011;12356;49.386;8.688;2022-11-14T01:49:13;32.08;;;17.80;;
24216;SDS011;12356;49.386;8.688;2022-11-14T01:51:58;30.20;;;17.90;;
24216;SDS011;12356;49.386;8.688;2022-11-14T01:54:29;29.92;;;17.35;;
24216;SDS011;12356;49.386;8.688;2022-11-14T01:57:04;30.73;;;17.48;;
24216;SDS011;12356;49.386;8.688;2022-11-14T01:59:37;32.25;;;17.98;;
24216;SDS011;12356;49.386;8.688;2022-11-14T02:02:23;32.30;;;17.60;;
24216;SDS011;12356;49.386;8.688;2022-11-14T02:04:56;27.13;;;16.95;;
24216;SDS011;12356;49.386;8.688;2022-11-14T02:07:31;25.08;;;15.90;;
24216;SDS011;12356;49.386;8.688;2022-11-14T02:10:09;26.55;;;16.85;;
24216;SDS011;12356;49.386;8.688;2022-11-14T02:12:46;25.73;;;16.20;;
24216;SDS011;12356;49.386;8.688;2022-11-14T02:15:18;25.83;;;17.05;;
24216;SDS011;12356;49.386;8.688;2022-11-14T02:17:49;23.80;;;15.47;;
24216;SDS011;12356;49.386;8.688;2022-11-14T02:20:24;23.80;;;15.52;;
24216;SDS011;12356;49.386;8.688;2022-11-14T02:22:57;25.70;;;15.75;;
24216;SDS011;12356;49.386;8.688;2022-11-14T02:25:28;25.20;;;15.68;;
24216;SDS011;12356;49.386;8.688;2022-11-14T02:27:59;23.95;;;15.40;;
24216;SDS011;12356;49.386;8.688;2022-11-14T02:30:31;23.65;;;15.52;;
24216;SDS011;12356;49.386;8.688;2022-11-14T02:33:02;22.80;;;15.00;;
24216;SDS011;12356;49.386;8.688;2022-11-14T02:35:33;23.42;;;16.00;;
24216;SDS011;12356;49.386;8.688;2022-11-14T02:38:03;22.55;;;14.65;;
24216;SDS011;12356;49.386;8.688;2022-11-14T02:40:34;23.42;;;15.30;;
24216;SDS011;12356;49.386;8.688;2022-11-14T02:43:06;24.73;;;14.93;;
24216;SDS011;12356;49.386;8.688;2022-11-14T02:45:37;23.45;;;15.40;;
24216;SDS011;12356;49.386;8.688;2022-11-14T02:48:07;23.02;;;15.38;;
24216;SDS011;12356;49.386;8.688;2022-11-14T02:50:38;23.70;;;15.45;;
24216;SDS011;12356;49.386;8.688;2022-11-14T02:53:09;24.45;;;15.63;;
24216;SDS011;12356;49.386;8.688;2022-11-14T02:55:39;23.88;;;16.00;;
24216;SDS011;12356;49.386;8.688;2022-11-14T02:58:10;25.10;;;15.18;;
24216;SDS011;12356;49.386;8.688;2022-11-14T03:00:41;24.58;;;15.48;;
24216;SDS011;12356;49.386;8.688;2022-11-14T03:03:11;25.50;;;16.30;;
24216;SDS011;12356;49.386;8.688;2022-11-14T03:05:42;25.92;;;16.17;;
24216;SDS011;12356;49.386;8.688;2022-11-14T03:08:13;24.45;;;15.10;;
24216;SDS011;12356;49.386;8.688;2022-11-14T03:10:43;24.83;;;15.23;;
24216;SDS011;12356;49.386;8.688;2022-11-14T03:13:14;25.73;;;15.18;;
24216;SDS011;12356;49.386;8.688;2022-11-14T03:15:45;25.27;;;15.70;;
24216;SDS011;12356;49.386;8.688;2022-11-14T03:18:15;23.33;;;14.85;;
24216;SDS011;12356;49.386;8.688;2022-11-14T03:20:46;25.33;;;15.43;;
24216;SDS011;12356;49.386;8.688;2022-11-14T03:23:17;23.20;;;15.00;;
24216;SDS011;12356;49.386;8.688;2022-11-14T03:25:47;23.27;;;15.07;;
24216;SDS011;12356;49.386;8.688;2022-11-14T03:28:18;24.42;;;15.23;;
24216;SDS011;12356;49.386;8.688;2022-11-14T03:30:48;23.60;;;15.95;;
24216;SDS011;12356;49.386;8.688;2022-11-14T03:33:19;22.30;;;14.95;;
24216;SDS011;12356;49.386;8.688;2022-11-14T03:35:50;24.40;;;15.63;;
24216;SDS011;12356;49.386;8.688;2022-11-14T03:38:21;23.08;;;15.55;;
24216;SDS011;12356;49.386;8.688;2022-11-14T03:40:56;23.48;;;15.02;;
24216;SDS011;12356;49.386;8.688;2022-11-14T03:43:31;22.92;;;15.48;;
24216;SDS011;12356;49.386;8.688;2022-11-14T03:46:02;22.83;;;14.70;;
24216;SDS011;12356;49.386;8.688;2022-11-14T03:48:33;28.02;;;15.85;;
24216;SDS011;12356;49.386;8.688;2022-11-14T03:51:04;24.70;;;15.35;;
24216;SDS011;12356;49.386;8.688;2022-11-14T03:53:34;23.58;;;15.57;;
24216;SDS011;12356;49.386;8.688;2022-11-14T03:56:05;22.05;;;14.70;;
24216;SDS011;12356;49.386;8.688;2022-11-14T03:58:36;26.77;;;15.70;;
24216;SDS011;12356;49.386;8.688;2022-11-14T04:01:07;21.75;;;14.50;;
24216;SDS011;12356;49.386;8.688;2022-11-14T04:03:39;22.52;;;15.30;;
24216;SDS011;12356;49.386;8.688;2022-11-14T04:06:10;21.92;;;15.13;;
24216;SDS011;12356;49.386;8.688;2022-11-14T04:08:40;22.65;;;15.20;;
24216;SDS011;12356;49.386;8.688;2022-11-14T04:11:11;23.42;;;14.90;;
24216;SDS011;12356;49.386;8.688;2022-11-14T04:13:43;23.48;;;15.05;;
24216;SDS011;12356;49.386;8.688;2022-11-14T04:16:14;21.27;;;14.32;;
24216;SDS011;12356;49.386;8.688;2022-11-14T04:18:44;21.75;;;14.43;;
24216;SDS011;12356;49.386;8.688;2022-11-14T04:21:15;22.58;;;14.32;;
24216;SDS011;12356;49.386;8.688;2022-11-14T04:23:46;21.17;;;13.82;;
24216;SDS011;12356;49.386;8.688;2022-11-14T04:26:17;21.67;;;13.70;;
24216;SDS011;12356;49.386;8.688;2022-11-14T04:28:47;19.75;;;13.85;;
24216;SDS011;12356;49.386;8.688;2022-11-14T04:31:18;20.15;;;13.68;;
24216;SDS011;12356;49.386;8.688;2022-11-14T04:33:50;20.27;;;13.57;;
24216;SDS011;12356;49.386;8.688;2022-11-14T04:36:20;21.65;;;13.15;;
24216;SDS011;12356;49.386;8.688;2022-11-14T04:38:51;20.98;;;13.57;;
24216;SDS011;12356;49.386;8.688;2022-11-14T04:41:22;20.10;;;13.23;;
24216;SDS011;12356;49.386;8.688;2022-11-14T04:43:52;21.02;;;13.63;;
24216;SDS011;12356;49.386;8.688;2022-11-14T04:46:23;20.08;;;13.70;;
24216;SDS011;12356;49.386;8.688;2022-11-14T04:48:54;20.98;;;13.63;;
24216;SDS011;12356;49.386;8.688;2022-11-14T04:51:24;20.00;;;13.20;;
24216;SDS011;12356;49.386;8.688;2022-11-14T04:53:55;18.17;;;12.75;;
24216;SDS011;12356;49.386;8.688;2022-11-14T04:56:26;19.88;;;12.98;;
24216;SDS011;12356;49.386;8.688;2022-11-14T04:58:58;19.30;;;12.98;;
24216;SDS011;12356;49.386;8.688;2022-11-14T05:01:28;18.50;;;12.85;;
24216;SDS011;12356;49.386;8.688;2022-11-14T05:03:59;20.63;;;13.75;;
24216;SDS011;12356;49.386;8.688;2022-11-14T05:06:30;18.63;;;13.00;;
24216;SDS011;12356;49.386;8.688;2022-11-14T05:09:00;21.33;;;13.45;;
24216;SDS011;12356;49.386;8.688;2022-11-14T05:11:31;18.42;;;12.98;;
24216;SDS011;12356;49.386;8.688;2022-11-14T05:14:02;18.63;;;12.82;;
24216;SDS011;12356;49.386;8.688;2022-11-14T05:16:32;19.27;;;12.68;;
24216;SDS011;12356;49.386;8.688;2022-11-14T05:19:03;20.42;;;13.20;;
24216;SDS011;12356;49.386;8.688;2022-11-14T05:21:34;19.42;;;12.98;;
24216;SDS011;12356;49.386;8.688;2022-11-14T05:24:04;19.83;;;12.80;;
24216;SDS011;12356;49.386;8.688;2022-11-14T05:26:35;17.17;;;12.43;;
24216;SDS011;12356;49.386;8.688;2022-11-14T05:29:06;18.52;;;12.55;;
24216;SDS011;12356;49.386;8.688;2022-11-14T05:31:37;18.75;;;12.32;;
24216;SDS011;12356;49.386;8.688;2022-11-14T05:34:08;17.85;;;12.35;;
24216;SDS011;12356;49.386;8.688;2022-11-14T05:36:38;18.88;;;12.23;;
24216;SDS011;12356;49.386;8.688;2022-11-14T05:39:09;18.10;;;12.30;;
24216;SDS011;12356;49.386;8.688;2022-11-14T05:41:41;18.33;;;12.50;;
24216;SDS011;12356;49.386;8.688;2022-11-14T05:44:11;17.27;;;11.85;;
24216;SDS011;12356;49.386;8.688;2022-11-14T05:46:42;18.48;;;12.73;;
24216;SDS011;12356;49.386;8.688;2022-11-14T05:49:13;17.42;;;11.73;;
24216;SDS011;12356;49.386;8.688;2022-11-14T05:51:43;18.90;;;12.05;;
24216;SDS011;12356;49.386;8.688;2022-11-14T05:54:14;17.10;;;11.93;;
24216;SDS011;12356;49.386;8.688;2022-11-14T05:56:44;19.63;;;12.80;;
24216;SDS011;12356;49.386;8.688;2022-11-14T05:59:15;19.92;;;12.90;;
24216;SDS011;12356;49.386;8.688;2022-11-14T06:01:46;21.48;;;12.43;;
24216;SDS011;12356;49.386;8.688;2022-11-14T06:04:17;18.23;;;12.33;;
24216;SDS011;12356;49.386;8.688;2022-11-14T06:06:48;18.58;;;12.20;;
24216;SDS011;12356;49.386;8.688;2022-11-14T06:09:19;19.40;;;12.82;;
24216;SDS011;12356;49.386;8.688;2022-11-14T06:11:50;19.52;;;12.75;;
24216;SDS011;12356;49.386;8.688;2022-11-14T06:14:20;18.67;;;12.52;;
24216;SDS011;12356;49.386;8.688;2022-11-14T06:16:51;20.35;;;12.48;;
24216;SDS011;12356;49.386;8.688;2022-11-14T06:19:22;18.63;;;12.27;;
24216;SDS011;12356;49.386;8.688;2022-11-14T06:21:52;20.80;;;12.77;;
24216;SDS011;12356;49.386;8.688;2022-11-14T06:24:23;19.02;;;12.23;;
24216;SDS011;12356;49.386;8.688;2022-11-14T06:26:53;20.45;;;12.30;;
24216;SDS011;12356;49.386;8.688;2022-11-14T06:29:24;18.80;;;12.25;;
24216;SDS011;12356;49.386;8.688;2022-11-14T06:31:54;20.73;;;11.90;;
24216;SDS011;12356;49.386;8.688;2022-11-14T06:34:25;19.08;;;12.63;;
24216;SDS011;12356;49.386;8.688;2022-11-14T06:36:56;19.42;;;12.35;;
24216;SDS011;12356;49.386;8.688;2022-11-14T06:39:27;18.73;;;12.27;;
24216;SDS011;12356;49.386;8.688;2022-11-14T06:41:57;19.60;;;12.02;;
24216;SDS011;12356;49.386;8.688;2022-11-14T06:44:28;18.75;;;12.15;;
24216;SDS011;12356;49.386;8.688;2022-11-14T06:46:59;20.15;;;12.35;;
24216;SDS011;12356;49.386;8.688;2022-11-14T06:49:30;21.77;;;12.82;;
24216;SDS011;12356;49.386;8.688;2022-11-14T06:52:00;18.40;;;11.90;;
24216;SDS011;12356;49.386;8.688;2022-11-14T06:54:32;20.20;;;12.75;;
24216;SDS011;12356;49.386;8.688;2022-11-14T06:57:02;19.63;;;12.85;;
24216;SDS011;12356;49.386;8.688;2022-11-14T06:59:33;20.88;;;12.77;;
24216;SDS011;12356;49.386;8.688;2022-11-14T07:02:04;20.38;;;13.38;;
24216;SDS011;12356;49.386;8.688;2022-11-14T07:04:35;19.45;;;12.68;;
24216;SDS011;12356;49.386;8.688;2022-11-14T07:07:05;22.83;;;13.30;;
24216;SDS011;12356;49.386;8.688;2022-11-14T07:09:36;21.45;;;13.23;;
24216;SDS011;12356;49.386;8.688;2022-11-14T07:12:08;23.05;;;13.77;;
24216;SDS011;12356;49.386;8.688;2022-11-14T07:14:38;23.27;;;14.73;;
24216;SDS011;12356;49.386;8.688;2022-11-14T07:17:09;25.00;;;15.95;;
24216;SDS011;12356;49.386;8.688;2022-11-14T07:19:40;28.08;;;15.70;;
24216;SDS011;12356;49.386;8.688;2022-11-14T07:22:10;25.13;;;15.15;;
24216;SDS011;12356;49.386;8.688;2022-11-14T07:24:41;25.45;;;14.93;;
24216;SDS011;12356;49.386;8.688;2022-11-14T07:27:11;25.92;;;14.68;;
24216;SDS011;12356;49.386;8.688;2022-11-14T07:29:42;21.67;;;13.77;;
24216;SDS011;12356;49.386;8.688;2022-11-14T07:32:13;22.65;;;14.27;;
24216;SDS011;12356;49.386;8.688;2022-11-14T07:34:43;21.83;;;13.32;;
24216;SDS011;12356;49.386;8.688;2022-11-14T07:37:14;23.80;;;14.52;;
24216;SDS011;12356;49.386;8.688;2022-11-14T07:39:44;20.25;;;13.02;;
24216;SDS011;12356;49.386;8.688;2022-11-14T07:42:16;20.42;;;12.80;;
24216;SDS011;12356;49.386;8.688;2022-11-14T07:44:47;19.45;;;12.65;;
24216;SDS011;12356;49.386;8.688;2022-11-14T07:47:17;19.92;;;12.40;;
24216;SDS011;12356;49.386;8.688;2022-11-14T07:49:48;18.83;;;12.35;;
24216;SDS011;12356;49.386;8.688;2022-11-14T07:52:20;20.87;;;12.97;;
24216;SDS011;12356;49.386;8.688;2022-11-14T07:54:50;16.10;;;10.88;;
24216;SDS011;12356;49.386;8.688;2022-11-14T07:57:21;17.77;;;11.18;;
24216;SDS011;12356;49.386;8.688;2022-11-14T07:59:52;15.32;;;10.57;;
24216;SDS011;12356;49.386;8.688;2022-11-14T08:02:22;17.02;;;10.25;;
24216;SDS011;12356;49.386;8.688;2022-11-14T08:04:53;15.23;;;9.73;;
24216;SDS011;12356;49.386;8.688;2022-11-14T08:07:24;14.73;;;9.93;;
24216;SDS011;12356;49.386;8.688;2022-11-14T08:09:54;15.68;;;10.10;;
24216;SDS011;12356;49.386;8.688;2022-11-14T08:12:25;15.73;;;10.55;;
24216;SDS011;12356;49.386;8.688;2022-11-14T08:14:56;15.30;;;9.85;;
24216;SDS011;12356;49.386;8.688;2022-11-14T08:17:26;17.52;;;10.63;;
24216;SDS011;12356;49.386;8.688;2022-11-14T08:19:57;16.92;;;10.82;;
24216;SDS011;12356;49.386;8.688;2022-11-14T08:22:27;17.38;;;11.23;;
24216;SDS011;12356;49.386;8.688;2022-11-14T08:25:00;16.95;;;10.15;;
24216;SDS011;12356;49.386;8.688;2022-11-14T08:27:30;17.67;;;10.65;;
24216;SDS011;12356;49.386;8.688;2022-11-14T08:30:01;17.92;;;11.07;;
24216;SDS011;12356;49.386;8.688;2022-11-14T08:32:32;18.27;;;10.95;;
24216;SDS011;12356;49.386;8.688;2022-11-14T08:35:02;17.58;;;10.55;;
24216;SDS011;12356;49.386;8.688;2022-11-14T08:37:33;18.80;;;10.90;;
24216;SDS011;12356;49.386;8.688;2022-11-14T08:40:04;16.50;;;10.85;;
24216;SDS011;12356;49.386;8.688;2022-11-14T08:42:35;16.25;;;10.43;;
24216;SDS011;12356;49.386;8.688;2022-11-14T08:45:06;16.20;;;10.40;;
24216;SDS011;12356;49.386;8.688;2022-11-14T08:47:37;15.73;;;9.82;;
24216;SDS011;12356;49.386;8.688;2022-11-14T08:50:08;13.50;;;9.40;;
24216;SDS011;12356;49.386;8.688;2022-11-14T08:52:38;14.35;;;9.45;;
24216;SDS011;12356;49.386;8.688;2022-11-14T08:55:09;17.55;;;10.30;;
24216;SDS011;12356;49.386;8.688;2022-11-14T08:57:39;15.05;;;9.90;;
24216;SDS011;12356;49.386;8.688;2022-11-14T09:00:10;14.93;;;9.32;;
24216;SDS011;12356;49.386;8.688;2022-11-14T09:02:41;14.05;;;9.13;;
24216;SDS011;12356;49.386;8.688;2022-11-14T09:05:12;14.05;;;9.45;;
24216;SDS011;12356;49.386;8.688;2022-11-14T09:07:42;15.60;;;8.63;;
24216;SDS011;12356;49.386;8.688;2022-11-14T09:10:13;13.82;;;8.60;;
24216;SDS011;12356;49.386;8.688;2022-11-14T09:12:45;12.43;;;8.18;;
24216;SDS011;12356;49.386;8.688;2022-11-14T09:15:15;13.77;;;8.60;;
24216;SDS011;12356;49.386;8.688;2022-11-14T09:17:46;11.93;;;7.95;;
24216;SDS011;12356;49.386;8.688;2022-11-14T09:20:17;11.32;;;7.95;;
24216;SDS011;12356;49.386;8.688;2022-11-14T09:22:48;12.45;;;8.05;;
24216;SDS011;12356;49.386;8.688;2022-11-14T09:25:22;12.73;;;8.18;;
24216;SDS011;12356;49.386;8.688;2022-11-14T09:27:52;12.25;;;8.23;;
24216;SDS011;12356;49.386;8.688;2022-11-14T09:30:23;13.32;;;8.63;;
24216;SDS011;12356;49.386;8.688;2022-11-14T09:32:57;14.27;;;8.30;;
24216;SDS011;12356;49.386;8.688;2022-11-14T09:35:30;15.27;;;9.15;;
24216;SDS011;12356;49.386;8.688;2022-11-14T09:38:05;13.48;;;9.23;;
24216;SDS011;12356;49.386;8.688;2022-11-14T09:46:30;11.80;;;7.57;;
24216;SDS011;12356;49.386;8.688;2022-11-14T09:55:10;11.15;;;7.03;;
24216;SDS011;12356;49.386;8.688;2022-11-14T09:57:46;10.80;;;6.85;;
24216;SDS011;12356;49.386;8.688;2022-11-14T10:00:17;9.50;;;6.75;;
24216;SDS011;12356;49.386;8.688;2022-11-14T10:03:06;8.05;;;5.88;;
24216;SDS011;12356;49.386;8.688;2022-11-14T10:08:59;9.05;;;6.00;;
24216;SDS011;12356;49.386;8.688;2022-11-14T10:15:20;11.05;;;5.80;;
24216;SDS011;12356;49.386;8.688;2022-11-14T10:20:47;8.23;;;5.05;;
24216;SDS011;12356;49.386;8.688;2022-11-14T10:26:08;8.45;;;5.70;;
24216;SDS011;12356;49.386;8.688;2022-11-14T10:28:55;9.13;;;5.00;;
24216;SDS011;12356;49.386;8.688;2022-11-14T10:40:00;6.70;;;4.55;;
24216;SDS011;12356;49.386;8.688;2022-11-14T10:42:54;8.40;;;4.55;;
24216;SDS011;12356;49.386;8.688;2022-11-14T10:45:40;8.38;;;4.50;;
24216;SDS011;12356;49.386;8.688;2022-11-14T10:48:19;8.30;;;3.95;;
24216;SDS011;12356;49.386;8.688;2022-11-14T10:53:40;4.88;;;3.50;;
24216;SDS011;12356;49.386;8.688;2022-11-14T10:56:13;5.35;;;3.45;;
24216;SDS011;12356;49.386;8.688;2022-11-14T10:58:44;4.50;;;3.45;;
24216;SDS011;12356;49.386;8.688;2022-11-14T11:02:00;5.40;;;3.28;;
24216;SDS011;12356;49.386;8.688;2022-11-14T11:04:29;5.82;;;3.22;;
24216;SDS011;12356;49.386;8.688;2022-11-14T11:09:37;4.18;;;3.22;;
24216;SDS011;12356;49.386;8.688;2022-11-14T11:12:42;4.68;;;3.20;;
24216;SDS011;12356;49.386;8.688;2022-11-14T11:15:22;5.97;;;3.20;;
24216;SDS011;12356;49.386;8.688;2022-11-14T11:18:03;7.32;;;3.92;;
24216;SDS011;12356;49.386;8.688;2022-11-14T11:20:36;5.70;;;3.40;;
24216;SDS011;12356;49.386;8.688;2022-11-14T11:25:40;4.70;;;3.40;;
24216;SDS011;12356;49.386;8.688;2022-11-14T11:30:53;5.38;;;3.33;;
24216;SDS011;12356;49.386;8.688;2022-11-14T11:33:29;6.93;;;3.35;;
24216;SDS011;12356;49.386;8.688;2022-11-14T11:36:17;4.95;;;3.13;;
24216;SDS011;12356;49.386;8.688;2022-11-14T11:38:50;4.60;;;2.90;;
24216;SDS011;12356;49.386;8.688;2022-11-14T11:41:38;4.68;;;2.70;;
24216;SDS011;12356;49.386;8.688;2022-11-14T11:44:11;4.43;;;3.22;;
24216;SDS011;12356;49.386;8.688;2022-11-14T11:52:19;5.18;;;3.28;;
24216;SDS011;12356;49.386;8.688;2022-11-14T11:55:04;7.47;;;3.40;;
24216;SDS011;12356;49.386;8.688;2022-11-14T11:57:46;4.68;;;3.35;;
24216;SDS011;12356;49.386;8.688;2022-11-14T12:00:24;4.75;;;3.30;;
24216;SDS011;12356;49.386;8.688;2022-11-14T12:02:54;6.68;;;3.40;;
24216;SDS011;12356;49.386;8.688;2022-11-14T12:11:37;5.00;;;3.30;;
24216;SDS011;12356;49.386;8.688;2022-11-14T12:17:13;5.53;;;3.15;;
24216;SDS011;12356;49.386;8.688;2022-11-14T12:31:42;3.28;;;2.70;;
24216;SDS011;12356;49.386;8.688;2022-11-14T12:34:17;5.43;;;2.97;;
24216;SDS011;12356;49.386;8.688;2022-11-14T12:36:50;4.22;;;2.70;;
24216;SDS011;12356;49.386;8.688;2022-11-14T12:39:24;4.22;;;2.80;;
24216;SDS011;12356;49.386;8.688;2022-11-14T12:42:01;7.93;;;3.42;;
24216;SDS011;12356;49.386;8.688;2022-11-14T12:44:37;6.40;;;2.97;;
24216;SDS011;12356;49.386;8.688;2022-11-14T12:58:10;5.57;;;3.67;;
24216;SDS011;12356;49.386;8.688;2022-11-14T13:11:52;7.07;;;3.60;;
24216;SDS011;12356;49.386;8.688;2022-11-14T13:14:51;4.45;;;3.40;;
24216;SDS011;12356;49.386;8.688;2022-11-14T13:17:42;5.20;;;3.17;;
24216;SDS011;12356;49.386;8.688;2022-11-14T13:20:33;6.50;;;3.70;;
24216;SDS011;12356;49.386;8.688;2022-11-14T13:28:51;5.63;;;3.13;;
24216;SDS011;12356;49.386;8.688;2022-11-14T13:31:41;4.83;;;2.67;;
24216;SDS011;12356;49.386;8.688;2022-11-14T13:42:40;5.70;;;3.17;;
24216;SDS011;12356;49.386;8.688;2022-11-14T13:45:47;7.70;;;3.03;;
24216;SDS011;12356;49.386;8.688;2022-11-14T13:51:13;4.60;;;2.80;;
24216;SDS011;12356;49.386;8.688;2022-11-14T13:53:47;4.13;;;2.60;;
24216;SDS011;12356;49.386;8.688;2022-11-14T14:01:50;4.70;;;2.80;;
24216;SDS011;12356;49.386;8.688;2022-11-14T14:13:18;5.32;;;2.35;;
24216;SDS011;12356;49.386;8.688;2022-11-14T14:30:07;10.75;;;5.13;;
24216;SDS011;12356;49.386;8.688;2022-11-14T14:33:08;8.45;;;5.57;;
24216;SDS011;12356;49.386;8.688;2022-11-14T14:35:50;12.68;;;5.72;;
24216;SDS011;12356;49.386;8.688;2022-11-14T14:38:23;11.77;;;6.50;;
24216;SDS011;12356;49.386;8.688;2022-11-14T14:40:56;10.88;;;7.22;;
24216;SDS011;12356;49.386;8.688;2022-11-14T14:43:36;14.15;;;6.63;;
24216;SDS011;12356;49.386;8.688;2022-11-14T14:46:06;10.35;;;6.95;;
24216;SDS011;12356;49.386;8.688;2022-11-14T14:48:38;13.80;;;7.32;;
24216;SDS011;12356;49.386;8.688;2022-11-14T14:51:12;11.68;;;7.05;;
24216;SDS011;12356;49.386;8.688;2022-11-14T14:53:50;14.18;;;7.75;;
24216;SDS011;12356;49.386;8.688;2022-11-14T14:56:22;15.95;;;8.02;;
24216;SDS011;12356;49.386;8.688;2022-11-14T14:58:54;15.57;;;8.45;;
24216;SDS011;12356;49.386;8.688;2022-11-14T15:01:32;13.43;;;7.75;;
24216;SDS011;12356;49.386;8.688;2022-11-14T15:04:05;14.80;;;8.50;;
24216;SDS011;12356;49.386;8.688;2022-11-14T15:06:38;14.55;;;8.13;;
24216;SDS011;12356;49.386;8.688;2022-11-14T15:09:12;15.93;;;8.33;;
24216;SDS011;12356;49.386;8.688;2022-11-14T15:11:50;14.88;;;8.02;;
24216;SDS011;12356;49.386;8.688;2022-11-14T15:14:29;12.52;;;7.68;;
24216;SDS011;12356;49.386;8.688;2022-11-14T15:17:02;11.10;;;7.50;;
24216;SDS011;12356;49.386;8.688;2022-11-14T15:19:38;14.23;;;8.13;;
24216;SDS011;12356;49.386;8.688;2022-11-14T15:27:47;13.60;;;7.95;;
24216;SDS011;12356;49.386;8.688;2022-11-14T15:30:22;12.90;;;8.57;;
24216;SDS011;12356;49.386;8.688;2022-11-14T15:35:29;17.83;;;8.20;;
24216;SDS011;12356;49.386;8.688;2022-11-14T15:40:42;16.00;;;8.25;;
24216;SDS011;12356;49.386;8.688;2022-11-14T15:51:48;14.02;;;8.38;;
24216;SDS011;12356;49.386;8.688;2022-11-14T15:54:26;17.15;;;8.75;;
24216;SDS011;12356;49.386;8.688;2022-11-14T15:56:58;16.63;;;8.68;;
24216;SDS011;12356;49.386;8.688;2022-11-14T15:59:30;16.95;;;8.73;;
24216;SDS011;12356;49.386;8.688;2022-11-14T16:02:03;22.83;;;11.15;;
24216;SDS011;12356;49.386;8.688;2022-11-14T16:04:46;20.25;;;10.65;;
24216;SDS011;12356;49.386;8.688;2022-11-14T16:07:19;15.27;;;10.25;;
24216;SDS011;12356;49.386;8.688;2022-11-14T16:09:51;17.77;;;9.48;;
24216;SDS011;12356;49.386;8.688;2022-11-14T16:12:22;14.75;;;7.75;;
24216;SDS011;12356;49.386;8.688;2022-11-14T16:14:52;12.10;;;7.25;;
24216;SDS011;12356;49.386;8.688;2022-11-14T16:17:23;8.07;;;5.43;;
24216;SDS011;12356;49.386;8.688;2022-11-14T16:19:53;10.05;;;4.72;;
24216;SDS011;12356;49.386;8.688;2022-11-14T16:22:29;8.60;;;4.82;;
24216;SDS011;12356;49.386;8.688;2022-11-14T16:24:59;10.63;;;4.53;;
24216;SDS011;12356;49.386;8.688;2022-11-14T16:27:30;8.30;;;4.03;;
24216;SDS011;12356;49.386;8.688;2022-11-14T16:30:01;7.32;;;4.60;;
24216;SDS011;12356;49.386;8.688;2022-11-14T16:32:32;7.75;;;4.35;;
24216;SDS011;12356;49.386;8.688;2022-11-14T16:35:02;5.85;;;3.65;;
24216;SDS011;12356;49.386;8.688;2022-11-14T16:37:33;6.18;;;3.58;;
24216;SDS011;12356;49.386;8.688;2022-11-14T16:40:04;11.00;;;3.60;;
24216;SDS011;12356;49.386;8.688;2022-11-14T16:42:35;8.27;;;4.10;;
24216;SDS011;12356;49.386;8.688;2022-11-14T16:45:07;9.82;;;3.45;;
24216;SDS011;12356;49.386;8.688;2022-11-14T16:47:38;6.55;;;3.90;;
24216;SDS011;12356;49.386;8.688;2022-11-14T16:50:09;9.63;;;3.85;;
24216;SDS011;12356;49.386;8.688;2022-11-14T16:52:40;5.72;;;3.67;;
24216;SDS011;12356;49.386;8.688;2022-11-14T16:55:10;6.00;;;3.85;;
24216;SDS011;12356;49.386;8.688;2022-11-14T16:57:41;7.15;;;3.95;;
24216;SDS011;12356;49.386;8.688;2022-11-14T17:00:13;8.80;;;4.28;;
24216;SDS011;12356;49.386;8.688;2022-11-14T17:02:44;8.68;;;5.05;;
24216;SDS011;12356;49.386;8.688;2022-11-14T17:05:16;9.73;;;5.13;;
24216;SDS011;12356;49.386;8.688;2022-11-14T17:07:48;12.38;;;6.50;;
24216;SDS011;12356;49.386;8.688;2022-11-14T17:10:18;11.68;;;7.35;;
24216;SDS011;12356;49.386;8.688;2022-11-14T17:12:49;14.50;;;7.72;;
24216;SDS011;12356;49.386;8.688;2022-11-14T17:15:20;12.68;;;7.75;;
24216;SDS011;12356;49.386;8.688;2022-11-14T17:17:50;13.20;;;8.00;;
24216;SDS011;12356;49.386;8.688;2022-11-14T17:20:21;11.43;;;7.85;;
24216;SDS011;12356;49.386;8.688;2022-11-14T17:22:52;13.27;;;8.48;;
24216;SDS011;12356;49.386;8.688;2022-11-14T17:25:24;13.07;;;8.10;;
24216;SDS011;12356;49.386;8.688;2022-11-14T17:27:54;16.05;;;8.00;;
24216;SDS011;12356;49.386;8.688;2022-11-14T17:30:25;18.42;;;8.75;;
24216;SDS011;12356;49.386;8.688;2022-11-14T17:32:56;16.08;;;8.30;;
24216;SDS011;12356;49.386;8.688;2022-11-14T17:35:26;16.80;;;8.98;;
24216;SDS011;12356;49.386;8.688;2022-11-14T17:37:57;20.02;;;9.32;;
24216;SDS011;12356;49.386;8.688;2022-11-14T17:40:28;17.35;;;8.82;;
24216;SDS011;12356;49.386;8.688;2022-11-14T17:42:58;14.40;;;9.00;;
24216;SDS011;12356;49.386;8.688;2022-11-14T17:45:29;15.10;;;9.90;;